Time;durP1;ratioP1;P1;durP2;ratioP2;P2;SDS_P1;SDS_P2;PMS_P1;PMS_P2;Temp;Humidity;BMP_temperature;BMP_pressure;BME280_temperature;BME280_humidity;BME280_pressure;Samples;Min_cycle;Max_cycle;Signal;HPM_P1;HPM_P2
2023/12/10 00:01:37;;;;;;;10.25;6.57;;;6.00;99.90;;;;;;6300441;22;20106;-67
2023/12/10 00:04:23;;;;;;;10.60;7.13;;;6.00;99.90;;;;;;6301543;22;20404;-67
2023/12/10 00:07:10;;;;;;;11.98;6.80;;;6.00;99.90;;;;;;6301825;22;20019;-67
2023/12/10 00:09:56;;;;;;;10.57;6.97;;;6.00;99.90;;;;;;6303351;22;20007;-68
2023/12/10 00:12:42;;;;;;;9.15;5.80;;;6.00;99.90;;;;;;6302190;22;20108;-68
2023/12/10 00:15:28;;;;;;;10.93;6.68;;;6.00;99.90;;;;;;6302224;22;20010;-68
2023/12/10 00:18:14;;;;;;;11.02;6.13;;;6.00;99.90;;;;;;6301099;22;20011;-68
2023/12/10 00:21:00;;;;;;;12.15;7.72;;;6.00;99.90;;;;;;6301640;22;20011;-68
2023/12/10 00:23:45;;;;;;;9.45;6.10;;;6.10;99.90;;;;;;6301661;22;20330;-68
2023/12/10 00:26:32;;;;;;;10.82;6.80;;;6.00;99.90;;;;;;6301352;22;20007;-68
2023/12/10 00:29:18;;;;;;;9.20;6.00;;;6.00;99.90;;;;;;6300747;22;20457;-69
2023/12/10 00:32:04;;;;;;;9.70;6.38;;;6.00;99.90;;;;;;6302353;22;20006;-68
2023/12/10 00:34:50;;;;;;;9.98;6.40;;;6.00;99.90;;;;;;6302686;22;20038;-67
2023/12/10 00:37:36;;;;;;;11.00;6.53;;;6.00;99.90;;;;;;6301700;22;20023;-68
2023/12/10 00:40:22;;;;;;;8.07;5.68;;;6.10;99.90;;;;;;6300552;22;20453;-68
2023/12/10 00:43:08;;;;;;;10.93;6.70;;;6.10;99.90;;;;;;6302523;22;20042;-68
2023/12/10 00:45:54;;;;;;;9.80;7.13;;;6.00;99.90;;;;;;6301809;22;20372;-68
2023/12/10 00:48:40;;;;;;;8.55;6.35;;;6.00;99.90;;;;;;6301774;22;20859;-69
2023/12/10 00:51:26;;;;;;;9.15;6.03;;;6.00;99.90;;;;;;6302617;22;20341;-68
2023/12/10 00:54:12;;;;;;;8.75;6.38;;;6.00;99.90;;;;;;6302305;22;20026;-67
2023/12/10 00:56:58;;;;;;;10.07;6.93;;;6.00;99.90;;;;;;6301006;22;20008;-66
2023/12/10 00:59:44;;;;;;;8.75;6.00;;;6.00;99.90;;;;;;6300934;22;20082;-66
2023/12/10 01:02:30;;;;;;;8.38;6.22;;;6.00;99.90;;;;;;6301084;22;20019;-66
2023/12/10 01:05:16;;;;;;;9.05;6.22;;;6.10;99.90;;;;;;6300906;22;20007;-66
2023/12/10 01:08:03;;;;;;;8.82;5.95;;;6.10;99.90;;;;;;6301209;22;20011;-66
2023/12/10 01:10:49;;;;;;;9.07;6.55;;;6.10;99.90;;;;;;6302051;22;20011;-66
2023/12/10 01:13:35;;;;;;;7.93;6.25;;;6.10;99.90;;;;;;6301194;22;20018;-66
2023/12/10 01:16:21;;;;;;;10.90;7.28;;;6.00;99.90;;;;;;6301198;22;20011;-66
2023/12/10 01:19:07;;;;;;;10.45;6.55;;;6.10;99.90;;;;;;6301098;22;20107;-66
2023/12/10 01:21:53;;;;;;;8.68;5.72;;;6.00;99.90;;;;;;6302168;22;20098;-66
2023/12/10 01:24:39;;;;;;;8.50;6.18;;;6.00;99.90;;;;;;6301655;22;20010;-66
2023/12/10 01:27:25;;;;;;;8.77;5.97;;;6.00;99.90;;;;;;6301430;22;20354;-66
2023/12/10 01:30:11;;;;;;;9.63;5.88;;;6.00;99.90;;;;;;6300403;22;20008;-65
2023/12/10 01:32:57;;;;;;;9.15;6.25;;;6.00;99.90;;;;;;6301943;22;20018;-65
2023/12/10 01:35:43;;;;;;;8.00;5.68;;;6.00;99.90;;;;;;6300997;22;20060;-66
2023/12/10 01:38:29;;;;;;;8.85;6.05;;;6.00;99.90;;;;;;6300857;22;20045;-65
2023/12/10 01:41:16;;;;;;;8.55;5.78;;;6.00;99.90;;;;;;6302496;22;20007;-65
2023/12/10 01:44:03;;;;;;;8.70;5.60;;;5.90;99.90;;;;;;6301713;22;20068;-66
2023/12/10 01:46:49;;;;;;;8.73;6.38;;;5.90;99.90;;;;;;6302329;22;20007;-66
2023/12/10 01:49:35;;;;;;;9.23;6.63;;;5.90;99.90;;;;;;6301603;22;20152;-66
2023/12/10 01:52:22;;;;;;;8.80;5.90;;;5.90;99.90;;;;;;6300357;22;20018;-65
2023/12/10 01:55:10;;;;;;;8.98;6.28;;;6.00;99.90;;;;;;6301726;22;20314;-65
2023/12/10 01:57:56;;;;;;;9.57;6.18;;;6.00;99.90;;;;;;6300102;22;20004;-66
2023/12/10 02:00:42;;;;;;;8.48;6.30;;;6.00;99.90;;;;;;6301174;22;20014;-66
2023/12/10 02:03:31;;;;;;;9.80;6.50;;;6.00;99.90;;;;;;6300884;22;20345;-66
2023/12/10 02:06:17;;;;;;;8.25;6.22;;;6.00;99.90;;;;;;6302199;22;20031;-66
2023/12/10 02:09:09;;;;;;;9.73;5.88;;;6.00;99.90;;;;;;6301175;22;20019;-66
2023/12/10 02:11:56;;;;;;;7.85;5.80;;;6.00;99.90;;;;;;6300487;22;20007;-65
2023/12/10 02:14:42;;;;;;;8.38;5.78;;;5.90;99.90;;;;;;6300844;22;20014;-65
2023/12/10 02:17:28;;;;;;;6.63;4.75;;;5.90;99.90;;;;;;6302174;22;20053;-65
2023/12/10 02:20:16;;;;;;;6.78;4.93;;;5.80;99.90;;;;;;6300882;22;20008;-66
2023/12/10 02:23:11;;;;;;;6.82;4.80;;;5.80;99.90;;;;;;6302145;22;20011;-65
2023/12/10 02:25:58;;;;;;;7.55;4.68;;;5.80;99.90;;;;;;6303539;22;20018;-65
2023/12/10 02:28:44;;;;;;;7.50;5.32;;;5.80;99.90;;;;;;6303443;22;20053;-65
2023/12/10 02:31:30;;;;;;;7.15;5.32;;;5.70;99.90;;;;;;6305843;22;20047;-65
2023/12/10 02:34:16;;;;;;;7.45;5.10;;;5.70;99.90;;;;;;6303682;22;20093;-65
2023/12/10 02:37:02;;;;;;;7.25;5.38;;;5.70;99.90;;;;;;6302463;22;20526;-65
2023/12/10 02:39:48;;;;;;;10.57;5.20;;;5.70;99.90;;;;;;6302087;22;20007;-64
2023/12/10 02:42:34;;;;;;;7.10;4.55;;;5.70;99.90;;;;;;6302115;22;20110;-64
2023/12/10 02:45:20;;;;;;;7.40;5.05;;;5.70;99.90;;;;;;6302366;22;20069;-64
2023/12/10 02:48:06;;;;;;;6.03;4.78;;;5.70;99.90;;;;;;6302790;22;20090;-64
2023/12/10 02:50:52;;;;;;;7.20;5.50;;;5.70;99.90;;;;;;6303330;22;20010;-64
2023/12/10 02:53:38;;;;;;;8.15;5.43;;;5.70;99.90;;;;;;6302216;22;20011;-64
2023/12/10 02:56:24;;;;;;;7.22;5.00;;;5.70;99.90;;;;;;6301288;22;20038;-64
2023/12/10 02:59:10;;;;;;;7.13;5.10;;;5.60;99.90;;;;;;6303428;22;20038;-65
2023/12/10 03:01:56;;;;;;;6.38;4.57;;;5.60;99.90;;;;;;6302862;22;20080;-65
2023/12/10 03:04:42;;;;;;;5.28;4.20;;;5.60;99.90;;;;;;6303091;22;20004;-65
2023/12/10 03:07:28;;;;;;;7.80;5.00;;;5.60;99.90;;;;;;6303373;22;20372;-64
2023/12/10 03:10:14;;;;;;;6.35;4.72;;;5.60;99.90;;;;;;6300891;22;20011;-66
2023/12/10 03:13:00;;;;;;;6.50;4.75;;;5.60;99.90;;;;;;6301346;22;20060;-65
2023/12/10 03:15:46;;;;;;;7.32;5.25;;;5.60;99.90;;;;;;6302810;22;20508;-65
2023/12/10 03:18:33;;;;;;;7.60;5.03;;;5.60;99.90;;;;;;6302548;22;20015;-65
2023/12/10 03:21:19;;;;;;;7.03;4.85;;;5.60;99.90;;;;;;6302647;22;20007;-65
2023/12/10 03:24:04;;;;;;;8.85;5.10;;;5.60;99.90;;;;;;6301992;22;20026;-66
2023/12/10 03:26:50;;;;;;;8.05;5.20;;;5.60;99.90;;;;;;6301396;22;20011;-65
2023/12/10 03:29:36;;;;;;;8.45;5.18;;;5.60;99.90;;;;;;6301048;22;20011;-65
2023/12/10 03:32:23;;;;;;;7.45;5.07;;;5.60;99.90;;;;;;6301253;22;20082;-65
2023/12/10 03:35:09;;;;;;;7.28;5.38;;;5.60;99.90;;;;;;6303248;22;20027;-65
2023/12/10 03:37:55;;;;;;;6.68;4.65;;;5.60;99.90;;;;;;6301644;22;20019;-64
2023/12/10 03:40:41;;;;;;;6.03;4.38;;;5.60;99.90;;;;;;6302305;22;20025;-65
2023/12/10 03:43:27;;;;;;;8.15;5.60;;;5.70;99.90;;;;;;6302029;22;20098;-65
2023/12/10 03:46:13;;;;;;;6.32;4.55;;;5.60;99.90;;;;;;6301953;22;20007;-65
2023/12/10 03:48:59;;;;;;;7.40;5.63;;;5.60;99.90;;;;;;6303010;22;20003;-65
2023/12/10 03:51:44;;;;;;;7.00;4.75;;;5.60;99.90;;;;;;6303329;22;20094;-65
2023/12/10 03:54:30;;;;;;;6.32;4.68;;;5.60;99.90;;;;;;6301516;22;20478;-65
2023/12/10 03:57:16;;;;;;;7.07;4.82;;;5.60;99.90;;;;;;6303217;22;20015;-64
2023/12/10 04:00:04;;;;;;;6.65;4.85;;;5.60;99.90;;;;;;6303930;22;20011;-66
2023/12/10 04:02:50;;;;;;;7.10;5.00;;;5.60;99.90;;;;;;6302257;22;20019;-66
2023/12/10 04:05:36;;;;;;;8.32;4.88;;;5.60;99.90;;;;;;6301530;22;20007;-65
2023/12/10 04:08:22;;;;;;;7.65;5.97;;;5.60;99.90;;;;;;6300740;22;20015;-65
2023/12/10 04:11:08;;;;;;;8.30;5.70;;;5.60;99.90;;;;;;6301575;22;20008;-66
2023/12/10 04:13:54;;;;;;;8.18;5.40;;;5.60;99.90;;;;;;6300786;22;20014;-66
2023/12/10 04:16:40;;;;;;;6.32;5.00;;;5.60;99.90;;;;;;6302491;22;20481;-66
2023/12/10 04:19:26;;;;;;;7.13;5.25;;;5.60;99.90;;;;;;6301759;22;20348;-64
2023/12/10 04:22:12;;;;;;;7.80;5.75;;;5.60;99.90;;;;;;6302078;22;20108;-65
2023/12/10 04:24:58;;;;;;;7.30;5.10;;;5.60;99.90;;;;;;6301578;22;20437;-66
2023/12/10 04:27:44;;;;;;;8.63;6.00;;;5.60;99.90;;;;;;6302824;22;20068;-66
2023/12/10 04:30:31;;;;;;;7.45;5.80;;;5.60;99.90;;;;;;6302348;22;20440;-66
2023/12/10 04:33:17;;;;;;;7.00;5.07;;;5.60;99.90;;;;;;6302303;22;20545;-66
2023/12/10 04:36:03;;;;;;;7.50;5.05;;;5.60;99.90;;;;;;6302185;22;20016;-65
2023/12/10 04:38:49;;;;;;;7.35;5.15;;;5.60;99.90;;;;;;6301927;22;20027;-66
2023/12/10 04:41:35;;;;;;;8.05;6.28;;;5.60;99.90;;;;;;6301020;22;20385;-65
2023/12/10 04:44:21;;;;;;;6.20;4.90;;;5.60;99.90;;;;;;6301285;22;20003;-65
2023/12/10 04:47:07;;;;;;;7.53;5.70;;;5.60;99.90;;;;;;6301299;22;20015;-65
2023/12/10 04:49:54;;;;;;;8.40;6.20;;;5.60;99.90;;;;;;6301368;22;20518;-65
2023/12/10 04:52:40;;;;;;;8.07;5.38;;;5.60;99.90;;;;;;6302718;22;20011;-65
2023/12/10 04:55:26;;;;;;;7.72;5.47;;;5.60;99.90;;;;;;6302850;22;20012;-65
2023/12/10 04:58:12;;;;;;;9.18;5.47;;;5.60;99.90;;;;;;6301954;22;20013;-65
2023/12/10 05:00:58;;;;;;;6.70;5.25;;;5.70;99.90;;;;;;6301956;22;20015;-64
2023/12/10 05:03:44;;;;;;;7.28;5.00;;;5.70;99.90;;;;;;6301424;22;20331;-65
2023/12/10 05:06:31;;;;;;;8.65;6.05;;;5.70;99.90;;;;;;6301358;22;20110;-65
2023/12/10 05:09:17;;;;;;;8.45;5.75;;;5.70;99.90;;;;;;6302374;22;20014;-65
2023/12/10 05:12:03;;;;;;;7.90;5.63;;;5.70;99.90;;;;;;6301342;22;20345;-65
2023/12/10 05:14:49;;;;;;;8.73;5.65;;;5.70;99.90;;;;;;6300116;22;20038;-65
2023/12/10 05:17:35;;;;;;;8.43;5.82;;;5.70;99.90;;;;;;6301394;22;20046;-65
2023/12/10 05:20:21;;;;;;;10.00;5.90;;;5.80;99.90;;;;;;6301263;22;20007;-65
2023/12/10 05:23:07;;;;;;;10.27;6.47;;;5.80;99.90;;;;;;6301444;22;20015;-60
2023/12/10 05:25:53;;;;;;;9.15;5.97;;;5.80;99.90;;;;;;6301540;22;20011;-62
2023/12/10 05:28:39;;;;;;;7.95;5.90;;;5.80;99.90;;;;;;6301007;22;20405;-62
2023/12/10 05:31:25;;;;;;;8.57;5.80;;;5.80;99.90;;;;;;6301952;22;20007;-63
2023/12/10 05:34:11;;;;;;;7.85;5.90;;;5.80;99.90;;;;;;6298508;22;20205;-62
2023/12/10 05:36:57;;;;;;;8.27;6.30;;;5.90;99.90;;;;;;6301139;22;20019;-63
2023/12/10 05:39:43;;;;;;;8.88;5.93;;;5.90;99.90;;;;;;6300998;22;20033;-63
2023/12/10 05:42:29;;;;;;;8.98;6.55;;;5.90;99.90;;;;;;6300937;22;20019;-63
2023/12/10 05:45:15;;;;;;;9.00;6.15;;;5.90;99.90;;;;;;6300331;22;20072;-63
2023/12/10 05:48:01;;;;;;;8.43;5.88;;;5.90;99.90;;;;;;6302449;22;20397;-63
2023/12/10 05:50:47;;;;;;;8.13;5.72;;;5.90;99.90;;;;;;6302045;22;20426;-63
2023/12/10 05:53:33;;;;;;;8.90;6.63;;;6.00;99.90;;;;;;6299539;22;20015;-63
2023/12/10 05:56:22;;;;;;;8.88;6.07;;;6.00;99.90;;;;;;6301515;22;20012;-64
2023/12/10 05:59:08;;;;;;;11.52;7.18;;;6.00;99.90;;;;;;6301176;22;20060;-63
2023/12/10 06:01:54;;;;;;;8.48;6.60;;;6.00;99.90;;;;;;6300559;22;20015;-63
2023/12/10 06:04:41;;;;;;;9.38;6.93;;;6.00;99.90;;;;;;6300666;22;20013;-63
2023/12/10 06:07:27;;;;;;;9.27;6.60;;;6.00;99.90;;;;;;6302316;22;20079;-65
2023/12/10 06:10:13;;;;;;;10.88;6.82;;;6.00;99.90;;;;;;6301429;22;20073;-65
2023/12/10 06:12:59;;;;;;;8.95;6.78;;;6.10;99.90;;;;;;6301915;22;20011;-66
2023/12/10 06:15:45;;;;;;;9.18;6.28;;;6.10;99.90;;;;;;6300871;22;20030;-66
2023/12/10 06:18:31;;;;;;;9.93;7.10;;;6.10;99.90;;;;;;6303430;22;20114;-66
2023/12/10 06:21:17;;;;;;;10.15;7.43;;;6.20;99.90;;;;;;6299812;22;20445;-65
2023/12/10 06:24:04;;;;;;;10.23;7.35;;;6.20;99.90;;;;;;6299936;22;20003;-65
2023/12/10 06:26:50;;;;;;;11.23;7.55;;;6.20;99.90;;;;;;6302696;22;20057;-65
2023/12/10 06:29:36;;;;;;;11.95;7.40;;;6.20;99.90;;;;;;6299356;22;20507;-65
2023/12/10 06:32:23;;;;;;;11.68;7.78;;;6.20;99.90;;;;;;6300027;22;20038;-66
2023/12/10 06:35:09;;;;;;;9.90;6.78;;;6.10;99.90;;;;;;6301012;22;20015;-65
2023/12/10 06:37:55;;;;;;;12.52;8.07;;;6.10;99.90;;;;;;6296901;22;20498;-66
2023/12/10 06:40:41;;;;;;;12.00;7.15;;;6.10;99.90;;;;;;6300909;22;20011;-66
2023/12/10 06:43:28;;;;;;;10.48;7.35;;;6.10;99.90;;;;;;6300579;22;20261;-66
2023/12/10 06:46:17;;;;;;;10.98;7.55;;;6.10;99.90;;;;;;6301563;22;20007;-65
2023/12/10 06:49:03;;;;;;;10.20;7.03;;;6.10;99.90;;;;;;6301637;22;20062;-65
2023/12/10 06:51:49;;;;;;;10.45;7.53;;;6.10;99.90;;;;;;6300863;22;20013;-66
2023/12/10 06:54:35;;;;;;;12.60;6.88;;;6.10;99.90;;;;;;6300616;22;20438;-65
2023/12/10 06:57:21;;;;;;;10.95;7.10;;;6.10;99.90;;;;;;6301699;22;20007;-66
2023/12/10 07:00:07;;;;;;;13.10;8.30;;;6.10;99.90;;;;;;6302361;22;20014;-66
2023/12/10 07:02:53;;;;;;;11.52;7.45;;;6.10;99.90;;;;;;6300031;22;20019;-65
2023/12/10 07:05:39;;;;;;;10.15;7.13;;;6.10;99.90;;;;;;6300339;22;20014;-69
2023/12/10 07:08:25;;;;;;;11.55;7.25;;;6.10;99.90;;;;;;6301877;22;20064;-64
2023/12/10 07:11:11;;;;;;;11.10;7.60;;;6.10;99.90;;;;;;6301764;22;20011;-63
2023/12/10 07:13:57;;;;;;;9.85;7.47;;;6.20;99.90;;;;;;6300054;22;20405;-63
2023/12/10 07:16:43;;;;;;;11.18;7.88;;;6.20;99.90;;;;;;6301477;22;20452;-63
2023/12/10 07:19:29;;;;;;;10.15;6.18;;;6.10;99.90;;;;;;6301015;22;20084;-63
2023/12/10 07:22:15;;;;;;;9.75;7.38;;;6.10;99.90;;;;;;6279703;22;20015;-63
2023/12/10 07:25:04;;;;;;;10.32;7.43;;;6.10;99.90;;;;;;6301970;22;20016;-62
2023/12/10 07:27:50;;;;;;;9.43;7.38;;;6.10;99.90;;;;;;6302574;22;20091;-63
2023/12/10 07:30:36;;;;;;;9.90;7.30;;;6.10;99.90;;;;;;6303116;22;20030;-63
2023/12/10 07:33:22;;;;;;;12.15;8.55;;;6.10;99.90;;;;;;6299873;22;20018;-64
2023/12/10 07:36:09;;;;;;;11.10;7.55;;;6.10;99.90;;;;;;6301587;22;20021;-64
2023/12/10 07:38:55;;;;;;;10.23;7.22;;;6.10;99.90;;;;;;6299600;22;20384;-64
2023/12/10 07:41:41;;;;;;;12.60;8.45;;;6.10;99.90;;;;;;6299464;22;20345;-64
2023/12/10 07:44:27;;;;;;;11.48;7.95;;;6.10;99.90;;;;;;6301000;22;20464;-64
2023/12/10 07:47:13;;;;;;;14.77;7.82;;;6.10;99.90;;;;;;6301854;22;20011;-64
2023/12/10 07:49:59;;;;;;;18.83;8.95;;;6.20;99.90;;;;;;6301868;22;20084;-63
2023/12/10 07:52:45;;;;;;;12.50;7.68;;;6.20;99.90;;;;;;6299951;22;20015;-63
2023/12/10 07:55:31;;;;;;;12.00;8.25;;;6.20;99.90;;;;;;6302094;22;20361;-63
2023/12/10 07:58:17;;;;;;;14.00;8.50;;;6.30;99.90;;;;;;6298573;22;20389;-63
2023/12/10 08:01:03;;;;;;;14.57;8.13;;;6.30;99.90;;;;;;6302097;22;20335;-63
2023/12/10 08:03:49;;;;;;;13.88;7.78;;;6.40;99.90;;;;;;6299160;22;20027;-63
2023/12/10 08:06:35;;;;;;;12.70;8.07;;;6.40;99.90;;;;;;6301641;22;20011;-63
2023/12/10 08:09:21;;;;;;;11.48;7.93;;;6.50;99.90;;;;;;6300474;22;20341;-64
2023/12/10 08:12:08;;;;;;;11.07;7.75;;;6.60;99.90;;;;;;6301373;22;20085;-63
2023/12/10 08:14:53;;;;;;;13.23;7.20;;;6.60;99.90;;;;;;6300896;22;20035;-63
2023/12/10 08:17:40;;;;;;;11.68;7.05;;;6.70;99.90;;;;;;6301527;22;20015;-63
2023/12/10 08:20:25;;;;;;;12.98;7.15;;;6.80;99.90;;;;;;6302229;22;20472;-64
2023/12/10 08:23:11;;;;;;;11.60;6.97;;;6.80;99.90;;;;;;6300493;22;20051;-68
2023/12/10 08:25:57;;;;;;;10.68;6.90;;;6.90;99.90;;;;;;6300053;22;20035;-66
2023/12/10 08:28:43;;;;;;;8.95;6.18;;;6.90;99.90;;;;;;6300531;22;20007;-65
2023/12/10 08:31:29;;;;;;;11.15;7.20;;;7.00;99.90;;;;;;6301147;22;20008;-64
2023/12/10 08:34:15;;;;;;;13.95;7.05;;;7.00;99.90;;;;;;6298591;22;20011;-64
2023/12/10 08:37:01;;;;;;;10.70;6.50;;;7.10;99.90;;;;;;6301511;22;20035;-68
2023/12/10 08:39:50;;;;;;;9.38;6.40;;;7.10;99.90;;;;;;6302041;22;20011;-65
2023/12/10 08:42:36;;;;;;;13.05;6.60;;;7.20;99.90;;;;;;6301702;22;20077;-65
2023/12/10 08:45:22;;;;;;;11.52;6.45;;;7.20;99.90;;;;;;6299949;22;20492;-65
2023/12/10 08:48:08;;;;;;;12.38;7.63;;;7.30;99.90;;;;;;6301865;22;20451;-64
2023/12/10 08:50:54;;;;;;;11.75;6.88;;;7.40;99.90;;;;;;6301151;22;20014;-64
2023/12/10 08:53:40;;;;;;;11.20;5.90;;;7.40;99.90;;;;;;6299146;22;20015;-65
2023/12/10 08:56:27;;;;;;;11.48;5.97;;;7.50;99.90;;;;;;6299688;22;20083;-64
2023/12/10 08:59:13;;;;;;;10.55;5.68;;;7.60;99.90;;;;;;6300295;22;20003;-64
2023/12/10 09:01:59;;;;;;;13.07;5.43;;;7.70;99.90;;;;;;6300855;22;20105;-64
2023/12/10 09:04:46;;;;;;;13.85;6.78;;;7.80;99.90;;;;;;6299346;22;20391;-64
2023/12/10 09:07:32;;;;;;;13.13;6.18;;;7.90;99.90;;;;;;6300378;22;20015;-64
2023/12/10 09:10:18;;;;;;;11.82;4.93;;;8.00;99.90;;;;;;6300085;22;20512;-64
2023/12/10 09:13:04;;;;;;;11.18;4.88;;;8.10;99.90;;;;;;6300295;22;20018;-64
2023/12/10 09:15:50;;;;;;;8.73;4.40;;;8.10;99.90;;;;;;6303068;22;20011;-65
2023/12/10 09:18:36;;;;;;;8.57;4.35;;;8.20;99.90;;;;;;6298346;22;20430;-64
2023/12/10 09:21:22;;;;;;;8.80;3.83;;;8.30;99.90;;;;;;6299359;22;20012;-65
2023/12/10 09:24:08;;;;;;;8.15;3.65;;;8.50;99.90;;;;;;6298633;22;20061;-64
2023/12/10 09:26:56;;;;;;;8.90;4.07;;;8.60;99.90;;;;;;6301742;22;20003;-64
2023/12/10 09:29:42;;;;;;;10.05;4.82;;;8.70;99.90;;;;;;6301977;22;20464;-64
2023/12/10 09:32:29;;;;;;;10.15;4.10;;;8.80;99.90;;;;;;6304007;22;19999;-64
2023/12/10 09:35:16;;;;;;;11.75;4.82;;;8.90;99.90;;;;;;6301137;22;20026;-64
2023/12/10 09:38:03;;;;;;;9.25;4.22;;;9.00;99.90;;;;;;6301188;22;20053;-64
2023/12/10 09:40:49;;;;;;;16.00;5.15;;;9.00;99.90;;;;;;6301003;22;20445;-64
2023/12/10 09:43:35;;;;;;;13.90;4.20;;;9.10;99.90;;;;;;6300974;22;20023;-65
2023/12/10 09:46:22;;;;;;;8.77;3.53;;;9.20;99.90;;;;;;6302937;22;20041;-65
2023/12/10 09:49:08;;;;;;;9.90;3.38;;;9.30;99.90;;;;;;6302288;22;20011;-65
2023/12/10 09:51:54;;;;;;;14.32;4.82;;;9.30;99.90;;;;;;6300954;22;20036;-65
2023/12/10 09:54:41;;;;;;;13.13;5.50;;;9.40;99.90;;;;;;6301651;22;20484;-65
2023/12/10 09:57:30;;;;;;;10.57;5.47;;;9.50;99.90;;;;;;6301019;22;20430;-66
2023/12/10 10:00:16;;;;;;;10.65;4.80;;;9.60;99.90;;;;;;6302392;22;20011;-65
2023/12/10 10:03:03;;;;;;;10.23;3.40;;;9.60;99.90;;;;;;6302001;22;20046;-63
2023/12/10 10:05:49;;;;;;;12.30;4.97;;;9.70;99.90;;;;;;6300856;22;20007;-68
2023/12/10 10:08:35;;;;;;;12.13;4.35;;;9.70;99.90;;;;;;6301746;22;20445;-64
2023/12/10 10:11:22;;;;;;;10.40;4.50;;;9.70;99.90;;;;;;6300385;22;20004;-65
2023/12/10 10:14:09;;;;;;;10.90;4.18;;;9.80;99.90;;;;;;6300687;22;20441;-64
2023/12/10 10:16:55;;;;;;;10.85;4.10;;;9.80;99.90;;;;;;6299495;22;20144;-65
2023/12/10 10:19:40;;;;;;;13.20;3.95;;;9.90;99.90;;;;;;6301143;22;20437;-64
2023/12/10 10:22:27;;;;;;;11.35;4.00;;;10.00;99.90;;;;;;6301057;22;20026;-66
2023/12/10 10:25:13;;;;;;;9.82;4.05;;;10.00;99.90;;;;;;6301979;22;20012;-65
2023/12/10 10:27:59;;;;;;;13.35;5.13;;;10.00;99.90;;;;;;6301321;22;20022;-66
2023/12/10 10:30:45;;;;;;;11.60;5.20;;;10.00;99.90;;;;;;6302691;22;20007;-65
2023/12/10 10:33:31;;;;;;;15.82;6.55;;;10.10;99.90;;;;;;6300406;22;20007;-65
2023/12/10 10:36:19;;;;;;;15.20;5.80;;;10.10;99.90;;;;;;6300991;22;20010;-65
2023/12/10 10:39:07;;;;;;;12.77;4.75;;;10.10;99.90;;;;;;6300895;22;20515;-64
2023/12/10 10:41:53;;;;;;;15.25;5.22;;;10.10;99.90;;;;;;6302678;22;20019;-65
2023/12/10 10:44:41;;;;;;;11.77;3.90;;;10.10;99.90;;;;;;6302655;22;20015;-64
2023/12/10 10:47:28;;;;;;;11.00;4.47;;;10.10;99.90;;;;;;6302350;22;20003;-65
2023/12/10 10:50:15;;;;;;;13.45;4.82;;;10.10;99.90;;;;;;6301818;22;20034;-65
2023/12/10 10:53:02;;;;;;;9.75;3.55;;;10.10;99.90;;;;;;6304647;22;20334;-66
2023/12/10 10:55:48;;;;;;;15.13;4.53;;;10.10;99.90;;;;;;6304890;22;20013;-66
2023/12/10 10:58:39;;;;;;;13.27;4.53;;;10.10;99.90;;;;;;6303784;22;20018;-66
2023/12/10 11:01:45;;;;;;;13.80;4.72;;;10.10;99.90;;;;;;6305587;22;20012;-65
2023/12/10 11:04:38;;;;;;;9.35;4.03;;;10.10;99.90;;;;;;6304284;22;20421;-66
2023/12/10 11:07:25;;;;;;;13.80;4.28;;;10.20;99.90;;;;;;6299967;22;20082;-64
2023/12/10 11:10:11;;;;;;;15.50;4.55;;;10.20;99.90;;;;;;6303612;22;20011;-65
2023/12/10 11:12:59;;;;;;;14.30;4.28;;;10.20;99.90;;;;;;6303052;22;20019;-64
2023/12/10 11:15:56;;;;;;;10.02;4.05;;;10.20;99.90;;;;;;6303566;22;20007;-65
2023/12/10 11:18:58;;;;;;;11.85;3.38;;;10.10;99.90;;;;;;6302446;22;20008;-65
2023/12/10 11:21:44;;;;;;;14.80;5.03;;;10.10;99.90;;;;;;6303633;22;20011;-65
2023/12/10 11:24:30;;;;;;;7.20;3.15;;;10.10;99.90;;;;;;6301508;22;20349;-65
2023/12/10 11:27:16;;;;;;;11.55;4.25;;;10.10;99.90;;;;;;6303010;22;20015;-65
2023/12/10 11:30:02;;;;;;;12.52;4.88;;;10.00;99.90;;;;;;6302914;22;20516;-66
2023/12/10 11:32:48;;;;;;;11.85;4.20;;;10.10;99.90;;;;;;6302739;22;20018;-64
2023/12/10 11:35:35;;;;;;;12.20;6.03;;;10.00;99.90;;;;;;6281495;22;20007;-65
2023/12/10 11:38:21;;;;;;;13.05;4.93;;;10.10;99.90;;;;;;6303224;22;20027;-65
2023/12/10 11:41:07;;;;;;;13.65;4.32;;;10.00;99.90;;;;;;6300621;22;20523;-64
2023/12/10 11:43:53;;;;;;;10.65;4.60;;;10.00;99.90;;;;;;6302088;22;20018;-65
2023/12/10 11:46:39;;;;;;;13.13;5.05;;;10.00;99.90;;;;;;6302537;22;20042;-65
2023/12/10 11:49:25;;;;;;;13.65;3.95;;;10.00;99.90;;;;;;6302999;22;20333;-65
2023/12/10 11:52:12;;;;;;;12.65;3.83;;;10.00;99.90;;;;;;6304302;22;20007;-66
2023/12/10 11:54:58;;;;;;;20.88;5.22;;;10.00;99.90;;;;;;6302629;22;20365;-65
2023/12/10 11:57:44;;;;;;;9.90;4.28;;;10.00;99.90;;;;;;6302730;22;20043;-65
2023/12/10 12:00:30;;;;;;;15.25;4.80;;;10.00;99.90;;;;;;6299535;22;20015;-65
2023/12/10 12:03:18;;;;;;;13.93;4.97;;;10.00;99.90;;;;;;6302816;22;20015;-66
2023/12/10 12:06:04;;;;;;;9.00;4.00;;;10.00;99.90;;;;;;6301589;22;20373;-65
2023/12/10 12:08:50;;;;;;;10.98;3.92;;;10.00;99.90;;;;;;6301398;22;20448;-66
2023/12/10 12:11:36;;;;;;;8.82;3.33;;;10.00;99.90;;;;;;6300025;22;20043;-65
2023/12/10 12:14:22;;;;;;;12.32;4.78;;;10.00;99.90;;;;;;6300851;22;20003;-68
2023/12/10 12:17:08;;;;;;;11.57;4.07;;;10.00;99.90;;;;;;6298424;22;20578;-65
2023/12/10 12:19:54;;;;;;;10.77;3.95;;;10.00;99.90;;;;;;6301561;22;20011;-68
2023/12/10 12:22:40;;;;;;;9.73;4.18;;;10.00;99.90;;;;;;6303048;22;20033;-69
2023/12/10 12:25:26;;;;;;;11.23;4.20;;;9.90;99.90;;;;;;6302277;22;20069;-69
2023/12/10 12:28:12;;;;;;;12.05;5.40;;;10.00;99.90;;;;;;6295451;22;20337;-68
2023/12/10 12:30:59;;;;;;;9.32;4.05;;;10.00;99.90;;;;;;6297742;22;20015;-67
2023/12/10 12:33:45;;;;;;;14.98;3.42;;;10.00;99.90;;;;;;6294959;22;20003;-69
2023/12/10 12:36:31;;;;;;;13.32;4.38;;;10.00;99.90;;;;;;6301533;22;20465;-68
2023/12/10 12:39:17;;;;;;;12.57;4.63;;;10.00;99.90;;;;;;6298944;22;20015;-67
2023/12/10 12:42:03;;;;;;;12.93;3.53;;;10.00;99.90;;;;;;6301952;22;20015;-67
2023/12/10 12:44:50;;;;;;;14.43;4.25;;;10.00;99.90;;;;;;6299532;22;20008;-67
2023/12/10 12:47:36;;;;;;;10.07;4.10;;;9.90;99.90;;;;;;6295039;22;20007;-67
2023/12/10 12:50:22;;;;;;;10.63;3.58;;;9.90;99.90;;;;;;6294712;22;20210;-67
2023/12/10 12:53:08;;;;;;;10.82;3.97;;;9.90;99.90;;;;;;6301182;22;20003;-67
2023/12/10 12:55:54;;;;;;;8.70;3.33;;;9.90;99.90;;;;;;6300883;22;20000;-67
2023/12/10 12:58:40;;;;;;;10.38;3.40;;;9.90;99.90;;;;;;6280634;22;20018;-67
2023/12/10 13:01:26;;;;;;;11.07;3.92;;;9.90;99.90;;;;;;6299257;22;20064;-67
2023/12/10 13:04:12;;;;;;;10.05;3.90;;;9.90;99.90;;;;;;6297825;22;20014;-67
2023/12/10 13:06:58;;;;;;;7.97;3.90;;;9.80;99.90;;;;;;6301509;22;20503;-68
2023/12/10 13:09:44;;;;;;;10.20;4.10;;;9.80;99.90;;;;;;6298780;22;20448;-68
2023/12/10 13:12:31;;;;;;;9.75;3.88;;;9.80;99.90;;;;;;6300665;22;20014;-68
2023/12/10 13:15:17;;;;;;;11.95;3.92;;;9.90;99.90;;;;;;6300101;22;20013;-68
2023/12/10 13:18:03;;;;;;;11.65;5.50;;;9.90;99.90;;;;;;6300852;22;20341;-67
2023/12/10 13:20:49;;;;;;;11.60;4.18;;;9.90;99.90;;;;;;6299897;22;20399;-68
2023/12/10 13:23:37;;;;;;;9.70;4.07;;;9.90;99.90;;;;;;6300068;22;20015;-67
2023/12/10 13:26:23;;;;;;;8.48;3.05;;;9.90;99.90;;;;;;6301231;22;20517;-68
2023/12/10 13:29:10;;;;;;;7.28;4.07;;;9.90;99.90;;;;;;6300808;22;20011;-68
2023/12/10 13:31:56;;;;;;;8.75;3.85;;;9.90;99.90;;;;;;6301572;22;20045;-64
2023/12/10 13:34:42;;;;;;;6.97;3.83;;;9.90;99.90;;;;;;6301548;22;20436;-67
2023/12/10 13:37:28;;;;;;;8.75;4.53;;;10.00;99.90;;;;;;6299808;22;20023;-67
2023/12/10 13:40:15;;;;;;;6.43;4.30;;;9.90;99.90;;;;;;6300498;22;20391;-66
2023/12/10 13:43:01;;;;;;;11.05;5.07;;;9.90;99.90;;;;;;6302128;22;20029;-67
2023/12/10 13:45:47;;;;;;;9.80;4.70;;;10.00;99.90;;;;;;6300160;22;20082;-67
2023/12/10 13:48:33;;;;;;;9.50;3.58;;;9.90;99.90;;;;;;6300536;22;20018;-67
2023/12/10 13:51:20;;;;;;;7.45;3.72;;;9.90;99.90;;;;;;6300030;22;20057;-66
2023/12/10 13:54:06;;;;;;;7.82;3.40;;;9.90;99.90;;;;;;6299788;22;20018;-66
2023/12/10 13:56:53;;;;;;;8.95;3.03;;;9.90;99.90;;;;;;6296158;22;20015;-68
2023/12/10 13:59:39;;;;;;;9.02;3.60;;;9.90;99.90;;;;;;6294949;22;20003;-66
2023/12/10 14:02:31;;;;;;;9.65;3.63;;;9.90;99.90;;;;;;6298627;22;20026;-66
2023/12/10 14:05:17;;;;;;;8.55;3.05;;;9.90;99.90;;;;;;6297293;22;20468;-66
2023/12/10 14:08:03;;;;;;;5.53;3.15;;;9.90;99.90;;;;;;6301302;22;20015;-65
2023/12/10 14:10:49;;;;;;;9.10;3.60;;;9.90;99.90;;;;;;6298796;22;20015;-65
2023/12/10 14:13:35;;;;;;;7.20;3.00;;;9.90;99.90;;;;;;6299002;22;20011;-65
2023/12/10 14:16:21;;;;;;;10.93;3.72;;;9.90;99.90;;;;;;6296363;22;20012;-65
2023/12/10 14:19:07;;;;;;;9.10;3.30;;;9.90;99.90;;;;;;6300019;22;20011;-66
2023/12/10 14:21:53;;;;;;;5.65;2.78;;;9.90;99.90;;;;;;6300187;22;20092;-66
2023/12/10 14:24:39;;;;;;;8.55;3.08;;;9.90;99.90;;;;;;6300806;22;20061;-66
2023/12/10 14:27:25;;;;;;;5.97;3.15;;;9.90;99.90;;;;;;6299341;22;20011;-66
2023/12/10 14:30:12;;;;;;;6.80;2.85;;;9.90;99.90;;;;;;6297069;22;20003;-65